首页
METAR-TAF:

METAR-TAF

机场 :

St. Augustine Airport

聖奧古斯丁, 佛罗里达州, 美国

纬度: 29-57-33N, 经度: 081-20-23W, 海拔: 3米

当前天气观测

该预报发布于30分钟前的14:56 UTC
风速4节,风向西转西北
温度 31°C
湿度 63%
气压 1020 hPa
能見度: 16.1公里
天空无云

METAR: KSGJ 101456Z 30004KT 10SM CLR 31/23 A3013 RMK AO2 SLP203 T03110233 53002 $

时间: 11:26 (15:26 UTC)

预报

该预报发布于3小时和30分钟前的11:56 UTC
预报有效从10日的 12点(UTC)到 11日的 12点(UTC)
风速6节,风向西
能見度: 10公里
散云层高于2500英尺
散云层高于7000英尺
散云层高于25000英尺
从 10日的 1700点(UTC)
风速9节,风向东转东南
能見度: 10公里
散云层高于4000英尺, 积雨云.
散云层高于12000英尺
多云层高于25000英尺
附近有雷暴
几率 30%
从 10日的 21点(UTC)到 11日的 01点(UTC)
风速15节,风向多变,有时为25节阵风
能見度: 4.8公里
散云层高于2500英尺
多云层高于3500英尺, 积雨云.
多云层高于7000英尺
雷暴, 大雨, 轻雾
从 11日的 0300点(UTC)
风速6节,风向西南
能見度: 10公里
散云层高于5000英尺
多云层高于12000英尺
多云层高于25000英尺
附近有阵雨

TAF: KSGJ 101156Z 1012/1112 28006KT P6SM SCT025 SCT070 SCT250 FM101700 11009KT P6SM VCTS SCT040CB SCT120 BKN250 PROB30 1021/1101 VRB15G25KT 3SM +TSRA BR SCT025 BKN035CB BKN070 FM110300 23006KT P6SM VCSH SCT050 BKN120 BKN250

超过4000个机场的气象观测和天气预报(METAR&TAF报告)。

可查询的气象台以黄色和红色小点在地图上表示。

将鼠标移到小点上方,可查看气象台名称。

然后点击查看天气观测和预报。

如需切换地图:点击带黑十字的绿色按钮放大地图;点击带横线的绿色按钮缩小地图;或者点击绿色箭头查看邻近地区的地图。


METAR-TAF: